Meteo Giornale » Osservazioni meteo Stati Uniti (USA) » Atlanta De Kalb-Peachtree
ore: 22:53 - Osservazioni Meteo Atlanta De Kalb-Peachtree
Lat. 33° 52' N Lon. 84° 17' W Alt. 305 metri s.l.m.
25 °C
Sereno
Temp. 24 Ore
22 °C
33 °C
Nord
0 Km/h
Dew point 19 °C
Umidità 69 %
Visibilità 14 Km
Il sole sorge alle ore 07:10
Il sole tramonta alle ore 20:04
| Data e Ora | Cielo e Fenomeni | T °C | DP °C | Um. % | Pres. hPa | Vis. km | Vento km/h | |
|---|---|---|---|---|---|---|---|---|
| Oggi h: 22:53 | Sereno | 25 | 19 | 69 | 1020 | 14 | N 0 | |
| Oggi h: 21:53 | Sereno | 26 | 19 | 65 | 1019 | 10 | N 0 | |
| Oggi h: 20:53 | Sereno | 27 | 18 | 57 | 1019 | 10 | N 0 | |
| Oggi h: 19:53 | Sereno | 30 | 17 | 45 | 1019 | 10 | N/NE 7.4 | |
| Oggi h: 18:53 | Sereno | 33 | 17 | 38 | 1019 | 10 | N/NE 13 | |
| Oggi h: 17:53 | Sereno | 33 | 18 | 41 | 1019 | 10 | N 5.5 | |
| Oggi h: 16:53 | Molto Nuvoloso | 33 | 18 | 41 | 1019 | 10 | N 7.4 | |
| Oggi h: 15:53 | Nuvoloso | 32 | 18 | 43 | 1020 | 10 | N 5.5 | |
| Oggi h: 14:53 | Nuvoloso | 33 | 19 | 43 | 1020 | 10 | N 9.3 | |
| Oggi h: 13:53 | Poco Nuvoloso | 32 | 19 | 46 | 1021 | 10 | N 0 | |
| Oggi h: 12:53 | Sereno | 31 | 19 | 48 | 1021 | 10 | N 0 | |
| Oggi h: 11:53 | Molto Nuvoloso | 31 | 21 | 55 | 1022 | 10 | N 0 | |
| Oggi h: 10:53 | Poco Nuvoloso | 28 | 22 | 69 | 1022 | 10 | O/NO 7.4 | |
| Oggi h: 09:53 | Sereno | 27 | 21 | 69 | 1022 | 14 | N 0 | |
| Oggi h: 08:53 | Sereno | 25 | 21 | 78 | 1022 | 10 | N 0 | |
| Oggi h: 07:53 | Sereno | 22 | 21 | 94 | 1021 | 14 | N 0 | |
| Oggi h: 06:53 | Sereno | 22 | 20 | 88 | 1021 | 10 | N 0 | |
| Oggi h: 05:53 | Sereno | 22 | 20 | 88 | 1020 | 10 | N 0 | |
| Oggi h: 04:53 | Sereno | 23 | 21 | 88 | 1020 | 10 | N 0 | |
| Oggi h: 03:53 | Sereno | 23 | 20 | 83 | 1020 | 10 | N 0 | |
| Oggi h: 02:53 | Sereno | 23 | 20 | 83 | 1020 | 10 | N 0 | |
| Oggi h: 01:53 | Sereno | 23 | 20 | 83 | 1020 | 10 | N 0 | |
| Oggi h: 00:53 | Sereno | 24 | 20 | 78 | 1020 | 10 | N 0 | |
| Ieri h: 23:53 | Sereno | 24 | 20 | 78 | 1020 | 10 | N 0 | |



